Time;durP1;ratioP1;P1;durP2;ratioP2;P2;SDS_P1;SDS_P2;PMS_P1;PMS_P2;Temp;Humidity;BMP_temperature;BMP_pressure;BME280_temperature;BME280_humidity;BME280_pressure;Samples;Min_cycle;Max_cycle;Signal;HPM_P1;HPM_P2
2024/03/09 00:00:27;;;;;;;48.60;23.80;;;;;;;-8.56;78.43;140204.41;106846;1258;25495;-64
2024/03/09 00:03:13;;;;;;;48.10;24.40;;;;;;;-8.53;78.37;140213.02;106872;1265;25414;-64
2024/03/09 00:05:59;;;;;;;45.40;22.50;;;;;;;-8.49;78.24;140219.94;106823;1270;25406;-63
2024/03/09 00:08:47;;;;;;;49.50;23.20;;;;;;;-8.49;77.95;140220.16;106732;1270;25489;-64
2024/03/09 00:11:33;;;;;;;49.20;22.70;;;;;;;-8.49;77.73;140220.17;106802;1270;23329;-62
2024/03/09 00:14:19;;;;;;;53.70;26.50;;;;;;;-8.49;77.81;140219.67;106885;1270;25337;-62
2024/03/09 00:17:04;;;;;;;47.20;24.10;;;;;;;-8.53;78.14;140212.53;106771;1265;25418;-63
2024/03/09 00:19:50;;;;;;;53.70;26.30;;;;;;;-8.58;78.18;140198.72;106713;1257;25408;-63
2024/03/09 00:22:37;;;;;;;53.50;25.50;;;;;;;-8.60;78.84;140195.75;106805;1261;25397;-62
2024/03/09 00:25:23;;;;;;;57.90;28.60;;;;;;;-8.60;78.68;140195.50;106872;1268;25375;-62
2024/03/09 00:28:09;;;;;;;58.40;29.90;;;;;;;-8.61;78.94;140192.05;106941;1260;25827;-63
2024/03/09 00:30:56;;;;;;;58.20;28.10;;;;;;;-8.64;78.91;140185.66;106913;1260;25345;-64
2024/03/09 00:33:42;;;;;;;61.40;30.00;;;;;;;-8.64;79.32;140185.41;106750;1260;25337;-62
2024/03/09 00:36:28;;;;;;;84.10;38.20;;;;;;;-8.63;79.31;140187.59;106877;1256;25373;-62
2024/03/09 00:39:14;;;;;;;81.80;39.30;;;;;;;-8.64;79.99;140185.16;106763;1270;25428;-61
2024/03/09 00:42:00;;;;;;;68.50;31.80;;;;;;;-8.64;79.92;140185.41;106816;1260;25367;-63
2024/03/09 00:44:46;;;;;;;64.90;31.30;;;;;;;-8.64;80.26;140185.66;106697;1260;25348;-64
2024/03/09 00:47:35;;;;;;;58.00;27.50;;;;;;;-8.64;80.23;140185.41;106658;1271;25356;-64
2024/03/09 00:50:23;;;;;;;65.20;29.80;;;;;;;-8.64;80.33;140184.17;106646;1268;25505;-65
2024/03/09 00:53:09;;;;;;;39.90;19.90;;;;;;;-8.66;80.19;140179.97;106672;1262;25369;-64
2024/03/09 00:55:56;;;;;;;33.80;15.90;;;;;;;-8.67;79.98;140177.00;106642;1269;25386;-64
2024/03/09 00:58:42;;;;;;;32.80;17.00;;;;;;;-8.66;79.88;140179.98;106622;1265;25422;-62
2024/03/09 01:01:28;;;;;;;33.50;17.70;;;;;;;-8.65;79.74;140182.20;106741;1260;23884;-60
2024/03/09 01:04:17;;;;;;;40.80;19.10;;;;;;;-8.63;79.55;140186.38;106739;1261;25463;-60
2024/03/09 01:07:04;;;;;;;38.80;20.70;;;;;;;-8.64;79.53;140185.16;106702;1261;25400;-62
2024/03/09 01:09:50;;;;;;;44.10;22.30;;;;;;;-8.65;79.65;140183.44;106706;1261;25398;-62
2024/03/09 01:12:36;;;;;;;47.30;24.00;;;;;;;-8.69;80.24;140171.59;106715;1270;25546;-63
2024/03/09 01:15:22;;;;;;;53.40;27.00;;;;;;;-8.76;80.26;140156.55;106729;1260;25398;-62
2024/03/09 01:18:07;;;;;;;63.10;30.10;;;;;;;-8.79;80.71;140149.63;106648;1270;25399;-59
2024/03/09 01:20:53;;;;;;;54.20;27.70;;;;;;;-8.80;80.80;140145.69;106639;1268;22685;-61
2024/03/09 01:23:39;;;;;;;47.70;24.20;;;;;;;-8.82;81.19;140142.97;106612;1268;25385;-62
2024/03/09 01:26:26;;;;;;;46.10;23.40;;;;;;;-8.82;81.20;140141.75;106616;1268;25348;-63
2024/03/09 01:29:12;;;;;;;53.40;26.50;;;;;;;-8.83;81.35;140138.06;106623;1260;25334;-62
2024/03/09 01:32:02;;;;;;;51.80;24.30;;;;;;;-8.84;81.67;140136.33;106658;1269;25447;-62
2024/03/09 01:34:48;;;;;;;48.90;23.60;;;;;;;-8.87;81.84;140129.20;106704;1270;25386;-64
2024/03/09 01:37:34;;;;;;;42.20;22.20;;;;;;;-8.88;82.21;140126.97;106700;1270;25475;-64
2024/03/09 01:40:20;;;;;;;45.70;22.40;;;;;;;-8.88;82.23;140125.72;106864;1267;25383;-61
2024/03/09 01:43:08;;;;;;;45.50;22.50;;;;;;;-8.89;82.68;140123.75;106750;1268;25337;-62
2024/03/09 01:45:55;;;;;;;55.50;28.00;;;;;;;-8.92;82.43;140117.83;106621;1266;25418;-64
2024/03/09 01:48:41;;;;;;;54.30;27.60;;;;;;;-9.00;82.91;140099.59;106631;1270;25404;-62
2024/03/09 01:51:27;;;;;;;47.40;22.60;;;;;;;-9.09;83.66;140077.17;106576;1264;25349;-62
2024/03/09 01:54:19;;;;;;;45.00;23.30;;;;;;;-9.13;84.18;140066.33;106692;1265;22542;-63
2024/03/09 01:57:05;;;;;;;;;;;;;;;-9.17;84.94;140056.72;106652;1269;25450;-64
2024/03/09 01:59:55;;;;;;;43.90;20.60;;;;;;;-9.24;85.70;140039.70;106665;1268;25366;-65
2024/03/09 02:02:42;;;;;;;66.00;29.00;;;;;;;-9.26;85.90;140036.03;106644;1270;25340;-63
2024/03/09 02:05:28;;;;;;;55.30;28.20;;;;;;;-9.23;86.56;140041.67;106667;1270;25421;-63
2024/03/09 02:08:15;;;;;;;57.00;28.70;;;;;;;-9.16;86.90;140058.45;106682;1257;25348;-63
2024/03/09 02:11:01;;;;;;;51.60;26.00;;;;;;;-9.13;86.86;140067.08;106599;1268;25373;-63
2024/03/09 02:13:47;;;;;;;59.00;27.70;;;;;;;-9.10;86.76;140073.97;106669;1270;25337;-63
2024/03/09 02:16:34;;;;;;;61.00;28.10;;;;;;;-9.12;86.93;140068.78;106746;1268;25349;-61
2024/03/09 02:19:20;;;;;;;63.40;31.30;;;;;;;-9.15;86.87;140060.92;106623;1270;25396;-64
2024/03/09 02:22:09;;;;;;;59.60;29.60;;;;;;;-9.21;87.40;140048.09;106649;1260;25348;-63
2024/03/09 02:24:55;;;;;;;60.10;29.20;;;;;;;-9.21;87.71;140047.59;106667;1270;25373;-64
2024/03/09 02:27:42;;;;;;;42.60;22.50;;;;;;;-9.22;87.87;140045.63;106634;1271;25373;-63
2024/03/09 02:30:29;;;;;;;47.70;24.60;;;;;;;-9.23;87.79;140043.41;106653;1271;25420;-62
2024/03/09 02:33:15;;;;;;;57.90;27.10;;;;;;;-9.29;88.40;140028.88;106647;1271;25345;-63
2024/03/09 02:36:00;;;;;;;62.20;29.10;;;;;;;-9.38;88.58;140005.72;106685;1259;25373;-63
2024/03/09 02:38:46;;;;;;;57.40;27.20;;;;;;;-9.48;89.43;139983.53;106793;1259;25415;-63
2024/03/09 02:41:32;;;;;;;53.80;26.90;;;;;;;-9.47;89.86;139984.53;106675;1256;25366;-64
2024/03/09 02:44:18;;;;;;;51.80;25.00;;;;;;;-9.44;90.33;139993.16;106761;1256;25364;-64
2024/03/09 02:47:05;;;;;;;60.80;29.20;;;;;;;-9.43;90.43;139995.86;106716;1260;22539;-63
2024/03/09 02:49:50;;;;;;;58.60;29.60;;;;;;;-9.44;90.59;139992.41;106731;1260;25338;-63
2024/03/09 02:52:36;;;;;;;73.40;33.80;;;;;;;-9.50;91.53;139978.59;106769;1260;25382;-63
2024/03/09 02:55:23;;;;;;;58.50;28.90;;;;;;;-9.54;92.32;139968.78;106770;1260;25535;-62
2024/03/09 02:58:09;;;;;;;58.40;29.40;;;;;;;-9.53;92.75;139971.22;106711;1256;22541;-63
2024/03/09 03:00:55;;;;;;;53.50;29.10;;;;;;;-9.55;92.94;139965.31;106773;1271;25498;-63
2024/03/09 03:03:57;;;;;;;60.90;30.40;;;;;;;-9.60;93.53;139953.47;106778;1260;25406;-62
2024/03/09 03:06:43;;;;;;;62.10;28.40;;;;;;;-9.66;93.88;139940.20;106797;1259;25310;-63
2024/03/09 03:09:29;;;;;;;46.80;26.00;;;;;;;-9.70;94.46;139930.06;106754;1260;25495;-64
2024/03/09 03:12:14;;;;;;;50.10;24.90;;;;;;;-9.72;94.55;139924.91;106725;1260;25367;-62
2024/03/09 03:15:01;;;;;;;50.50;24.20;;;;;;;-9.70;94.92;139928.34;106861;1260;25370;-63
2024/03/09 03:17:47;;;;;;;45.60;24.40;;;;;;;-9.69;94.97;139931.53;106756;1260;25406;-61
2024/03/09 03:20:34;;;;;;;45.60;25.00;;;;;;;-9.70;95.07;139928.59;106769;1260;25413;-64
2024/03/09 03:23:20;;;;;;;46.30;23.60;;;;;;;-9.70;95.09;139929.83;106721;1271;25383;-63
2024/03/09 03:26:06;;;;;;;50.50;24.10;;;;;;;-9.72;95.06;139923.44;108725;1260;22544;-62
2024/03/09 03:28:54;;;;;;;57.30;25.60;;;;;;;-9.76;95.52;139914.55;106709;1256;25418;-64
2024/03/09 03:31:41;;;;;;;54.10;23.40;;;;;;;-9.80;95.76;139905.20;106717;1272;25430;-63
2024/03/09 03:34:27;;;;;;;35.60;17.20;;;;;;;-9.79;96.19;139906.92;106742;1260;25383;-62
2024/03/09 03:37:17;;;;;;;34.90;17.10;;;;;;;-9.74;95.91;139920.22;106668;1263;25428;-63
2024/03/09 03:40:07;;;;;;;41.00;19.70;;;;;;;-9.67;95.48;139937.47;107934;1258;25348;-63
2024/03/09 03:42:52;;;;;;;45.50;19.50;;;;;;;-9.64;95.53;139944.13;106669;1268;24192;-64
2024/03/09 03:45:38;;;;;;;49.00;22.30;;;;;;;-9.61;95.13;139952.25;106675;1270;25419;-60
2024/03/09 03:48:24;;;;;;;39.10;21.30;;;;;;;-9.59;94.97;139956.44;106667;1271;25325;-64
2024/03/09 03:51:12;;;;;;;38.90;21.60;;;;;;;-9.59;94.70;139955.22;106675;1257;25489;-64
2024/03/09 03:53:58;;;;;;;44.50;23.50;;;;;;;-9.63;94.62;139946.83;106709;1260;25353;-64
2024/03/09 03:56:43;;;;;;;39.30;19.60;;;;;;;-9.67;94.68;139936.75;106862;1262;25469;-63
2024/03/09 03:59:29;;;;;;;38.60;19.20;;;;;;;-9.77;95.25;139911.34;106661;1270;25471;-64
2024/03/09 04:02:15;;;;;;;35.00;18.20;;;;;;;-9.79;95.07;139906.17;107067;1259;24212;-64
2024/03/09 04:05:02;;;;;;;34.60;16.60;;;;;;;-9.80;94.98;139904.70;106907;1256;25527;-60
2024/03/09 04:07:48;;;;;;;34.20;17.60;;;;;;;-9.84;95.09;139895.59;106853;1261;25512;-62
2024/03/09 04:10:34;;;;;;;39.30;18.30;;;;;;;-9.88;95.79;139887.22;106815;1260;25349;-62
2024/03/09 04:13:21;;;;;;;31.60;15.40;;;;;;;-9.86;95.98;139892.64;106827;1260;25244;-63
2024/03/09 04:16:07;;;;;;;31.20;15.30;;;;;;;-9.78;95.81;139911.34;106825;1260;25504;-62
2024/03/09 04:18:53;;;;;;;29.10;17.10;;;;;;;-9.68;95.50;139933.52;106911;1259;25376;-63
2024/03/09 04:21:40;;;;;;;34.70;16.40;;;;;;;-9.62;95.12;139948.55;106969;1256;25358;-63
2024/03/09 04:24:27;;;;;;;38.00;17.00;;;;;;;-9.54;94.52;139967.30;106912;1268;22523;-63
2024/03/09 04:27:14;;;;;;;36.30;17.20;;;;;;;-9.52;94.21;139972.20;106887;1270;25525;-63
2024/03/09 04:29:59;;;;;;;32.20;17.70;;;;;;;-9.56;94.26;139963.58;106852;1260;25406;-61
2024/03/09 04:32:45;;;;;;;31.40;16.30;;;;;;;-9.60;94.16;139954.95;106824;1266;25540;-65
2024/03/09 04:35:31;;;;;;;32.40;15.80;;;;;;;-9.65;94.15;139941.42;106795;1271;22529;-64
2024/03/09 04:38:17;;;;;;;32.60;15.80;;;;;;;-9.70;94.33;139928.84;106854;1269;25422;-65
2024/03/09 04:41:03;;;;;;;31.20;15.20;;;;;;;-9.70;94.73;139930.33;106627;1271;25349;-62
2024/03/09 04:43:49;;;;;;;30.00;17.40;;;;;;;-9.66;94.61;139938.22;106825;1256;25552;-60
2024/03/09 04:46:36;;;;;;;44.50;20.00;;;;;;;-9.63;94.48;139946.08;106853;1262;25352;-65
2024/03/09 04:49:21;;;;;;;28.60;16.10;;;;;;;-9.55;94.07;139966.03;106853;1266;25608;-63
2024/03/09 04:52:07;;;;;;;38.70;18.50;;;;;;;-9.46;94.02;139989.22;106789;1268;25367;-63
2024/03/09 04:54:52;;;;;;;32.30;17.40;;;;;;;-9.36;93.70;140012.09;106955;1261;25364;-62
2024/03/09 04:57:38;;;;;;;30.20;16.40;;;;;;;-8.81;93.09;140143.00;106919;1272;23201;-65
2024/03/09 05:00:28;;;;;;;31.00;18.80;;;;;;;-7.54;89.23;140450.80;106928;1260;25443;-64
2024/03/09 05:03:14;;;;;;;29.20;16.50;;;;;;;-6.23;82.05;140765.95;106868;1269;25341;-64
2024/03/09 05:06:01;;;;;;;31.50;15.90;;;;;;;-5.17;75.01;141022.59;106865;1267;25399;-63
2024/03/09 05:08:47;;;;;;;25.60;13.40;;;;;;;-4.28;69.16;141236.20;106850;1265;25377;-63
2024/03/09 05:11:32;;;;;;;25.10;14.30;;;;;;;-3.39;65.07;141451.45;106808;1272;25434;-63
2024/03/09 05:14:18;;;;;;;24.40;14.30;;;;;;;-2.55;60.55;141657.47;106894;1268;25378;-62
2024/03/09 05:17:04;;;;;;;21.40;13.30;;;;;;;-1.74;56.63;141853.22;106964;1270;25338;-66
2024/03/09 05:19:50;;;;;;;23.90;13.20;;;;;;;-1.02;53.40;142026.28;106814;1270;25406;-63
2024/03/09 05:22:36;;;;;;;24.00;13.30;;;;;;;-0.35;50.66;142190.22;106874;1271;25355;-64
2024/03/09 05:25:22;;;;;;;21.40;13.10;;;;;;;0.17;48.37;142316.77;106870;1260;25331;-63
2024/03/09 05:28:12;;;;;;;27.20;15.00;;;;;;;0.80;46.70;142468.47;106882;1258;25426;-64
2024/03/09 05:30:59;;;;;;;29.20;15.10;;;;;;;1.50;44.98;142638.92;106996;1257;24370;-61
2024/03/09 05:33:45;;;;;;;30.60;17.00;;;;;;;2.17;42.71;142802.28;107022;1269;25568;-63
2024/03/09 05:36:31;;;;;;;32.40;16.70;;;;;;;2.66;40.90;142921.63;106940;1268;24266;-60
2024/03/09 05:39:17;;;;;;;33.60;16.10;;;;;;;2.95;39.71;142993.38;106883;1267;25390;-63
2024/03/09 05:42:04;;;;;;;27.50;14.80;;;;;;;3.10;39.01;143029.03;107010;1259;23094;-62
2024/03/09 05:44:49;;;;;;;23.70;13.70;;;;;;;3.30;38.61;143078.14;106927;1262;25413;-63
2024/03/09 05:47:36;;;;;;;26.20;13.30;;;;;;;3.69;37.56;143172.39;107029;1262;22595;-62
2024/03/09 05:50:28;;;;;;;25.50;14.20;;;;;;;3.90;36.96;143224.27;106849;1256;25507;-62
2024/03/09 05:53:14;;;;;;;27.50;14.30;;;;;;;4.32;36.19;143326.08;106839;1262;22534;-62
2024/03/09 05:56:00;;;;;;;31.10;16.60;;;;;;;4.60;35.73;143393.95;106963;1259;25341;-62
2024/03/09 05:58:46;;;;;;;27.50;12.70;;;;;;;4.72;35.37;143422.89;106779;1273;25395;-62
2024/03/09 06:01:32;;;;;;;22.60;11.50;;;;;;;4.25;35.42;143308.38;106683;1271;25559;-63
2024/03/09 06:04:18;;;;;;;23.80;13.30;;;;;;;2.85;37.30;142967.72;106767;1271;25485;-61
2024/03/09 06:07:04;;;;;;;22.40;13.30;;;;;;;1.99;39.10;142759.42;106975;1262;25379;-61
2024/03/09 06:09:49;;;;;;;22.50;11.70;;;;;;;1.33;40.46;142597.86;106740;1268;25291;-63
2024/03/09 06:12:35;;;;;;;20.30;11.60;;;;;;;1.56;40.79;142654.84;106761;1268;25365;-60
2024/03/09 06:15:23;;;;;;;19.30;10.90;;;;;;;2.89;39.36;142977.92;106761;1271;25337;-63
2024/03/09 06:18:09;;;;;;;16.80;10.30;;;;;;;4.29;37.27;143318.09;106854;1268;25364;-63
2024/03/09 06:20:55;;;;;;;18.40;11.20;;;;;;;5.36;35.49;143579.97;107038;1262;25544;-60
2024/03/09 06:23:41;;;;;;;17.90;11.30;;;;;;;6.04;34.44;143746.88;106776;1257;25511;-63
2024/03/09 06:26:27;;;;;;;17.20;10.60;;;;;;;6.60;33.55;143883.63;106876;1262;25542;-63
2024/03/09 06:29:12;;;;;;;21.00;10.70;;;;;;;7.08;32.63;144000.42;106756;1258;25407;-65
2024/03/09 06:31:58;;;;;;;23.90;11.80;;;;;;;7.64;31.84;144135.50;106789;1271;25536;-64
2024/03/09 06:34:43;;;;;;;19.10;12.30;;;;;;;7.18;32.00;144024.69;106759;1260;23324;-64
2024/03/09 06:37:29;;;;;;;17.50;11.00;;;;;;;6.44;32.83;143844.64;106822;1269;22534;-64
2024/03/09 06:40:14;;;;;;;26.80;12.10;;;;;;;6.40;33.08;143833.38;106904;1271;25369;-65
2024/03/09 06:43:03;;;;;;;16.90;10.70;;;;;;;7.41;32.05;144080.47;106836;1271;25539;-63
2024/03/09 06:45:49;;;;;;;18.20;12.20;;;;;;;7.00;32.07;143980.66;107020;1256;25349;-64
2024/03/09 06:48:34;;;;;;;21.10;11.40;;;;;;;5.88;33.21;143707.38;106862;1262;23318;-63
2024/03/09 06:51:20;;;;;;;16.70;11.20;;;;;;;5.27;33.97;143558.97;107052;1257;23309;-63
2024/03/09 06:54:06;;;;;;;18.30;11.70;;;;;;;5.52;34.25;143619.67;106803;1261;25338;-63
2024/03/09 06:56:52;;;;;;;17.80;11.20;;;;;;;6.11;33.61;143763.88;106837;1257;25396;-63
2024/03/09 06:59:41;;;;;;;21.20;11.90;;;;;;;7.06;32.71;143994.41;106874;1262;25496;-64
2024/03/09 07:02:26;;;;;;;14.80;10.80;;;;;;;8.19;31.14;144271.19;106880;1271;25459;-65
2024/03/09 07:05:12;;;;;;;15.80;10.90;;;;;;;8.20;30.79;144274.19;106807;1257;25440;-64
2024/03/09 07:08:01;;;;;;;18.10;10.70;;;;;;;7.75;31.04;144164.80;106895;1260;25349;-64
2024/03/09 07:10:47;;;;;;;15.70;9.50;;;;;;;7.26;31.83;144043.22;107031;1261;22527;-63
2024/03/09 07:13:32;;;;;;;15.60;10.30;;;;;;;6.43;32.70;143840.88;106954;1259;25376;-63
2024/03/09 07:16:18;;;;;;;15.90;9.80;;;;;;;5.43;33.88;143597.45;106870;1262;25419;-62
2024/03/09 07:19:06;;;;;;;14.30;9.30;;;;;;;4.38;35.45;143339.53;106797;1261;25498;-63
2024/03/09 07:21:52;;;;;;;18.10;9.90;;;;;;;3.25;37.05;143066.66;106959;1262;25377;-61
2024/03/09 07:24:38;;;;;;;16.60;9.60;;;;;;;2.26;38.74;142823.94;106827;1262;25425;-64
2024/03/09 07:27:24;;;;;;;16.20;10.20;;;;;;;1.52;40.35;142644.41;106902;1270;23269;-63
2024/03/09 07:30:14;;;;;;;18.80;10.80;;;;;;;0.80;41.92;142469.95;106836;1268;25474;-64
2024/03/09 07:32:59;;;;;;;16.60;10.00;;;;;;;0.26;43.18;142338.64;106815;1278;25348;-62
2024/03/09 07:35:44;;;;;;;18.90;11.40;;;;;;;-0.11;44.23;142248.66;106922;1268;22531;-65
2024/03/09 07:38:30;;;;;;;19.70;11.70;;;;;;;-0.42;45.21;142173.34;106783;1262;25431;-63
2024/03/09 07:41:16;;;;;;;22.70;12.60;;;;;;;-0.61;45.94;142126.36;106809;1258;25393;-66
2024/03/09 07:44:02;;;;;;;23.10;12.50;;;;;;;-0.75;46.67;142092.83;107027;1256;25367;-63
2024/03/09 07:46:48;;;;;;;21.30;13.00;;;;;;;-0.91;47.27;142054.08;106893;1260;25396;-63
2024/03/09 07:49:33;;;;;;;21.60;12.30;;;;;;;-1.13;47.98;142001.42;107048;1262;25354;-64
2024/03/09 07:52:19;;;;;;;28.30;14.50;;;;;;;-1.38;49.02;141939.59;106798;1265;22618;-63
2024/03/09 07:55:08;;;;;;;26.30;15.10;;;;;;;-1.56;49.80;141896.16;106883;1261;25380;-64
2024/03/09 07:57:55;;;;;;;26.10;17.00;;;;;;;-1.79;50.66;141839.31;106815;1262;23180;-63
2024/03/09 08:00:59;;;;;;;26.70;14.10;;;;;;;-2.07;52.16;141774.28;107048;1272;25443;-61
2024/03/09 08:03:45;;;;;;;21.60;11.60;;;;;;;-2.09;52.71;141769.09;106860;1269;25352;-64
2024/03/09 08:06:31;;;;;;;24.10;11.80;;;;;;;-2.06;53.06;141776.55;107039;1278;22638;-67
2024/03/09 08:09:16;;;;;;;24.70;12.10;;;;;;;-2.12;53.60;141760.66;106813;1256;25395;-64
2024/03/09 08:12:03;;;;;;;25.40;13.00;;;;;;;-2.22;54.41;141736.58;107138;1276;25353;-70
2024/03/09 08:14:49;;;;;;;21.80;12.40;;;;;;;-2.32;55.42;141710.78;106989;1260;25359;-69
2024/03/09 08:17:36;;;;;;;23.00;13.30;;;;;;;-2.51;56.56;141666.66;106875;1269;25425;-69
2024/03/09 08:20:22;;;;;;;21.90;12.00;;;;;;;-2.61;57.72;141640.84;106972;1272;25348;-78
2024/03/09 08:23:08;;;;;;;20.40;12.10;;;;;;;-2.64;58.35;141634.91;107003;1270;22648;-76
2024/03/09 08:25:55;;;;;;;21.10;11.60;;;;;;;-2.62;58.90;141638.86;106749;1269;24193;-67
2024/03/09 08:28:42;;;;;;;23.70;11.90;;;;;;;-2.51;58.99;141666.41;106810;1256;22534;-67
2024/03/09 08:31:28;;;;;;;19.70;12.30;;;;;;;-2.26;58.58;141726.17;106979;1272;26675;-71
2024/03/09 08:34:14;;;;;;;24.40;12.50;;;;;;;-1.98;57.99;141795.14;106980;1262;23275;-68
2024/03/09 08:37:03;;;;;;;26.00;12.40;;;;;;;-1.73;57.42;141854.95;107074;1262;22660;-67
2024/03/09 08:39:50;;;;;;;24.60;12.20;;;;;;;-1.67;57.21;141869.34;106861;1259;25335;-71
2024/03/09 08:42:37;;;;;;;20.30;10.00;;;;;;;-1.67;56.41;141871.08;106864;1262;25402;-63
2024/03/09 08:45:26;;;;;;;17.50;9.70;;;;;;;-1.67;55.33;141869.36;106979;1272;25348;-69
2024/03/09 08:48:12;;;;;;;16.40;8.40;;;;;;;-1.66;55.04;141873.08;106938;1260;25352;-72
2024/03/09 08:50:59;;;;;;;19.00;8.80;;;;;;;-1.68;54.48;141868.38;107008;1271;25565;-63
2024/03/09 08:53:45;;;;;;;14.30;8.70;;;;;;;-1.83;54.89;141830.88;107200;1271;23437;-72
2024/03/09 08:56:31;;;;;;;20.70;9.30;;;;;;;-1.89;55.28;141814.75;106794;1272;25386;-68
2024/03/09 08:59:17;;;;;;;15.10;8.30;;;;;;;-1.85;55.40;141826.41;107146;1262;25341;-71
2024/03/09 09:02:03;;;;;;;20.30;9.70;;;;;;;-1.79;55.37;141840.55;106728;1262;25416;-71
2024/03/09 09:04:50;;;;;;;16.70;9.00;;;;;;;-1.66;55.17;141871.84;106750;1265;26507;-75
2024/03/09 09:07:36;;;;;;;15.80;9.00;;;;;;;-1.50;54.74;141911.55;106595;1274;25367;-70
2024/03/09 09:10:22;;;;;;;20.30;9.80;;;;;;;-1.41;54.52;141933.41;106635;1262;25342;-72
2024/03/09 09:13:08;;;;;;;21.70;9.20;;;;;;;-1.23;53.88;141975.84;106788;1262;24279;-74
2024/03/09 09:15:54;;;;;;;15.70;8.50;;;;;;;-1.11;53.15;142005.16;106852;1266;25490;-64
2024/03/09 09:18:41;;;;;;;20.40;10.30;;;;;;;-1.31;53.28;141955.97;106777;1272;22553;-70
2024/03/09 09:21:27;;;;;;;13.50;8.50;;;;;;;-1.38;53.46;141940.59;106757;1276;25498;-67
2024/03/09 09:24:13;;;;;;;16.70;9.40;;;;;;;-1.35;53.29;141947.56;107018;1272;25410;-70
2024/03/09 09:26:59;;;;;;;16.80;9.10;;;;;;;-1.31;53.16;141955.98;106912;1270;22528;-75
2024/03/09 09:29:45;;;;;;;15.20;9.10;;;;;;;-1.26;52.85;141969.39;106675;1263;25373;-72
2024/03/09 09:32:31;;;;;;;19.30;9.70;;;;;;;-1.20;53.02;141983.05;106767;1267;25397;-67
2024/03/09 09:35:20;;;;;;;18.50;9.70;;;;;;;-1.07;52.85;142014.83;106677;1269;25594;-67
2024/03/09 09:38:05;;;;;;;19.60;11.00;;;;;;;-0.98;52.59;142036.19;106758;1261;22543;-72
2024/03/09 09:40:57;;;;;;;18.50;10.10;;;;;;;-0.88;52.28;142060.55;106387;1271;336439;-68
2024/03/09 09:43:43;;;;;;;16.50;10.20;;;;;;;-0.81;52.09;142079.17;106881;1262;22714;-71
2024/03/09 09:46:30;;;;;;;21.30;10.80;;;;;;;-0.65;51.80;142117.44;106806;1262;22547;-69
2024/03/09 09:49:17;;;;;;;22.60;10.00;;;;;;;-0.44;51.28;142168.86;106735;1272;25364;-71
2024/03/09 09:52:03;;;;;;;19.80;8.90;;;;;;;-0.29;50.44;142205.63;106937;1262;25338;-71
2024/03/09 09:54:54;;;;;;;14.70;8.90;;;;;;;-0.22;49.58;142222.30;106951;1279;25376;-68
2024/03/09 09:57:43;;;;;;;19.10;10.20;;;;;;;-0.14;49.61;142240.19;106769;1262;25333;-63
2024/03/09 10:00:29;;;;;;;18.70;10.50;;;;;;;-0.00;49.65;142274.00;106708;1278;25443;-71
2024/03/09 10:03:16;;;;;;;18.80;10.50;;;;;;;0.14;49.01;142309.78;106735;1273;25396;-68
2024/03/09 10:06:01;;;;;;;18.10;9.30;;;;;;;0.13;47.94;142307.80;106937;1272;26536;-67
2024/03/09 10:08:53;;;;;;;16.70;8.30;;;;;;;0.06;47.48;142289.91;106754;1272;25564;-67
2024/03/09 10:11:39;;;;;;;15.40;8.80;;;;;;;0.01;47.65;142277.47;106852;1262;25376;-67
2024/03/09 10:14:31;;;;;;;18.00;9.10;;;;;;;0.08;47.73;142293.88;106941;1259;25376;-68
2024/03/09 10:17:19;;;;;;;;;;;;;;;0.18;47.39;142320.23;106850;1262;22781;-74
2024/03/09 10:20:06;;;;;;;16.60;8.50;;;;;;;0.30;47.26;142347.09;106859;1263;25348;-72
2024/03/09 10:22:51;;;;;;;15.40;9.10;;;;;;;0.37;46.96;142364.00;106740;1260;22611;-68
2024/03/09 10:25:39;;;;;;;21.70;9.60;;;;;;;0.36;47.14;142363.02;106658;1271;25428;-67
2024/03/09 10:28:25;;;;;;;19.20;10.20;;;;;;;0.33;47.37;142356.05;106892;1262;25543;-68
2024/03/09 10:31:12;;;;;;;17.90;8.40;;;;;;;0.34;46.98;142357.05;106664;1258;26591;-69
2024/03/09 10:33:58;;;;;;;19.00;8.90;;;;;;;0.24;46.79;142333.17;106782;1262;23180;-69
2024/03/09 10:36:45;;;;;;;12.90;6.70;;;;;;;0.19;46.19;142322.72;107208;1270;25377;-69
2024/03/09 10:39:32;;;;;;;19.20;8.10;;;;;;;0.18;45.97;142319.00;107142;1260;22541;-76
2024/03/09 10:42:20;;;;;;;16.00;8.30;;;;;;;0.23;46.46;142331.92;106959;1266;25497;-77
2024/03/09 10:45:11;;;;;;;14.50;8.30;;;;;;;0.30;46.31;142348.31;106955;1260;22896;-73
2024/03/09 10:47:58;;;;;;;17.00;6.80;;;;;;;0.29;46.03;142344.59;106852;1259;25359;-66
2024/03/09 10:51:18;;;;;;;11.50;6.10;;;;;;;0.27;45.12;142340.84;107004;1263;25338;-70
2024/03/09 10:54:16;;;;;;;15.60;5.90;;;;;;;0.28;45.42;142343.59;106722;1260;25362;-71
2024/03/09 10:57:03;;;;;;;11.80;4.20;;;;;;;0.17;44.13;142317.25;106677;1273;25704;-70
2024/03/09 10:59:51;;;;;;;11.10;4.30;;;;;;;0.03;44.03;142281.22;106846;1261;25432;-75
2024/03/09 11:02:40;;;;;;;11.00;5.70;;;;;;;-0.03;44.87;142267.77;106850;1262;25501;-70
2024/03/09 11:05:27;;;;;;;12.40;5.80;;;;;;;0.13;45.43;142306.58;106816;1262;23301;-75
2024/03/09 11:08:13;;;;;;;10.20;5.40;;;;;;;0.25;45.42;142334.16;106868;1263;25360;-76
2024/03/09 11:11:02;;;;;;;14.00;6.00;;;;;;;0.22;45.55;142327.95;106770;1270;25467;-71
2024/03/09 11:13:48;;;;;;;11.60;5.90;;;;;;;0.14;45.85;142308.08;106978;1271;25428;-74
2024/03/09 11:16:36;;;;;;;10.30;5.60;;;;;;;0.09;46.01;142295.88;106853;1262;25447;-74
2024/03/09 11:19:26;;;;;;;15.10;6.30;;;;;;;0.04;46.13;142284.45;107179;1270;25396;-74
2024/03/09 11:22:40;;;;;;;8.60;4.60;;;;;;;-0.00;46.18;142274.25;106756;1270;25375;-63
2024/03/09 11:25:48;;;;;;;11.70;5.80;;;;;;;0.01;46.38;142277.47;106792;1271;25397;-70
2024/03/09 11:28:42;;;;;;;10.80;5.80;;;;;;;0.04;46.23;142285.42;106940;1262;25338;-70
2024/03/09 11:31:29;;;;;;;9.80;5.90;;;;;;;0.08;46.11;142295.38;106838;1263;25440;-72
2024/03/09 11:34:21;;;;;;;11.80;5.10;;;;;;;0.14;45.72;142309.53;107040;1265;25523;-68
2024/03/09 11:37:10;;;;;;;11.40;5.80;;;;;;;0.26;45.54;142337.89;107055;1262;25397;-72
2024/03/09 11:39:56;;;;;;;10.20;5.40;;;;;;;0.25;45.46;142336.14;106691;1271;25489;-68
2024/03/09 11:42:42;;;;;;;8.10;4.10;;;;;;;0.16;45.23;142315.52;106788;1257;25355;-65
2024/03/09 11:45:29;;;;;;;10.50;4.10;;;;;;;0.10;43.71;142299.84;106770;1272;25337;-70
2024/03/09 11:48:14;;;;;;;11.10;4.60;;;;;;;0.20;43.30;142322.47;106989;1264;25412;-70
2024/03/09 11:51:00;;;;;;;8.60;4.20;;;;;;;0.31;42.98;142350.81;106910;1270;22534;-72
2024/03/09 11:53:46;;;;;;;8.50;3.50;;;;;;;0.62;42.87;142426.42;106976;1272;23319;-75
2024/03/09 11:56:36;;;;;;;10.90;4.50;;;;;;;1.18;42.17;142562.53;106828;1272;25338;-66
2024/03/09 11:59:23;;;;;;;8.90;4.50;;;;;;;1.49;42.20;142637.94;106854;1274;25367;-70
2024/03/09 12:02:09;;;;;;;10.00;4.60;;;;;;;1.37;42.69;142607.08;106894;1273;25328;-72
2024/03/09 12:04:58;;;;;;;8.50;4.00;;;;;;;1.12;42.41;142547.08;106874;1259;25338;-67
2024/03/09 12:07:47;;;;;;;10.20;4.50;;;;;;;0.71;43.06;142447.06;106759;1279;25377;-63
2024/03/09 12:10:34;;;;;;;9.40;4.30;;;;;;;0.47;43.65;142390.84;106838;1271;25396;-69
2024/03/09 12:13:24;;;;;;;9.70;4.60;;;;;;;0.24;44.12;142334.66;106890;1263;25337;-70
2024/03/09 12:16:10;;;;;;;8.80;4.30;;;;;;;0.12;44.54;142304.58;106942;1276;25442;-70
2024/03/09 12:18:59;;;;;;;14.30;5.30;;;;;;;0.12;44.69;142305.08;107077;1262;25376;-72
2024/03/09 12:21:46;;;;;;;10.90;3.90;;;;;;;0.15;44.59;142310.78;107051;1263;25376;-70
2024/03/09 12:24:32;;;;;;;10.30;4.20;;;;;;;0.22;44.35;142329.17;107123;1263;25337;-72
2024/03/09 12:27:20;;;;;;;7.20;3.40;;;;;;;0.13;44.38;142306.81;107063;1268;25353;-74
2024/03/09 12:30:11;;;;;;;7.90;3.70;;;;;;;0.09;44.37;142297.88;106969;1260;22538;-66
2024/03/09 12:32:57;;;;;;;7.80;4.00;;;;;;;0.28;44.04;142343.38;106862;1263;22542;-74
2024/03/09 12:35:46;;;;;;;7.80;4.60;;;;;;;0.48;43.91;142391.61;107043;1260;25365;-68